createdAt,value
2024-05-09T00:01:02.918Z,102345.22
2024-05-09T00:03:32.740Z,102342.22
2024-05-09T00:06:02.598Z,102337.84
2024-05-09T00:08:32.622Z,102343.47
2024-05-09T00:11:05.256Z,102337.97
2024-05-09T00:13:35.039Z,102339.47
2024-05-09T00:16:04.757Z,102341.22
2024-05-09T00:18:34.565Z,102345.00
2024-05-09T00:21:06.768Z,102348.75
2024-05-09T00:23:36.752Z,102349.03
2024-05-09T00:26:09.231Z,102341.63
2024-05-09T00:28:38.965Z,102341.09
2024-05-09T00:31:08.578Z,102333.72
2024-05-09T00:33:38.553Z,102331.97
2024-05-09T00:36:10.060Z,102331.09
2024-05-09T00:38:39.736Z,102328.59
2024-05-09T00:41:12.024Z,102329.47
2024-05-09T00:43:41.784Z,102330.84
2024-05-09T00:46:12.570Z,102330.84
2024-05-09T00:48:44.925Z,102330.13
2024-05-09T00:51:14.899Z,102334.09
2024-05-09T00:53:44.935Z,102328.72
2024-05-09T00:56:18.438Z,102338.75
2024-05-09T00:58:48.654Z,102327.22
2024-05-09T01:01:23.798Z,102334.50
2024-05-09T01:03:54.043Z,102337.63
2024-05-09T01:06:24.309Z,102332.22
2024-05-09T01:08:54.137Z,102337.00
2024-05-09T01:11:26.545Z,102334.25
2024-05-09T01:13:56.436Z,102335.59
2024-05-09T01:16:26.421Z,102332.84
2024-05-09T01:18:56.202Z,102326.59
2024-05-09T01:21:26.106Z,102326.72
2024-05-09T01:23:59.722Z,102326.72
2024-05-09T01:26:32.465Z,102330.69
2024-05-09T01:29:02.686Z,102325.28
2024-05-09T01:31:32.769Z,102325.44
2024-05-09T01:34:03.025Z,102317.28
2024-05-09T01:36:32.819Z,102321.03
2024-05-09T01:39:05.298Z,102309.03
2024-05-09T01:41:34.939Z,102310.41
2024-05-09T01:44:04.686Z,102300.25
2024-05-09T01:46:34.936Z,102304.03
2024-05-09T01:49:04.661Z,102307.78
2024-05-09T01:51:34.398Z,102307.91
2024-05-09T01:54:07.060Z,102309.66
2024-05-09T01:56:36.645Z,102302.84
2024-05-09T01:59:07.609Z,102305.75
2024-05-09T02:01:55.696Z,102301.91
2024-05-09T02:04:27.413Z,102302.91
2024-05-09T02:06:57.059Z,102303.78
2024-05-09T02:09:29.456Z,102297.22
2024-05-09T02:11:59.295Z,102294.00
2024-05-09T02:14:29.015Z,102296.75
2024-05-09T02:16:58.910Z,102293.09
2024-05-09T02:19:28.819Z,102300.50
2024-05-09T02:21:58.497Z,102307.00
2024-05-09T02:24:30.822Z,102300.50
2024-05-09T02:27:00.670Z,102296.38
2024-05-09T02:29:30.520Z,102304.50
2024-05-09T02:32:00.552Z,102307.38
2024-05-09T02:34:30.395Z,102305.75
2024-05-09T02:37:00.092Z,102298.47
2024-05-09T02:39:29.724Z,102306.63
2024-05-09T02:41:59.525Z,102304.09
2024-05-09T02:44:26.888Z,102300.63
2024-05-09T02:46:56.657Z,102303.47
2024-05-09T02:49:24.855Z,102304.47
2024-05-09T02:51:54.758Z,102304.59
2024-05-09T02:54:22.061Z,102312.09
2024-05-09T02:56:54.487Z,102313.72
2024-05-09T02:59:21.922Z,102313.34
2024-05-09T03:01:51.760Z,102309.72
2024-05-09T03:04:18.971Z,102303.31
2024-05-09T03:06:48.637Z,102299.81
2024-05-09T03:09:15.946Z,102301.84
2024-05-09T03:14:19.238Z,102293.56
2024-05-09T03:16:49.000Z,102298.53
2024-05-09T03:19:16.230Z,102295.91
2024-05-09T03:21:46.055Z,102296.19
2024-05-09T03:24:13.085Z,102297.16
2024-05-09T03:26:44.135Z,102292.78
2024-05-09T03:29:11.132Z,102292.16
2024-05-09T03:31:44.295Z,102294.75
2024-05-09T03:34:11.773Z,102291.63
2024-05-09T03:36:44.123Z,102287.88
2024-05-09T03:39:13.941Z,102294.75
2024-05-09T03:41:43.798Z,102293.88
2024-05-09T03:44:13.392Z,102293.09
2024-05-09T03:46:43.058Z,102292.22
2024-05-09T03:49:12.752Z,102288.97
2024-05-09T03:51:42.891Z,102295.56
2024-05-09T03:54:10.104Z,102300.28
2024-05-09T03:56:40.066Z,102302.28
2024-05-09T03:59:07.973Z,102293.38
2024-05-09T04:01:37.744Z,102296.25
2024-05-09T04:04:09.468Z,102298.88
2024-05-09T04:06:39.294Z,102300.25
2024-05-09T04:09:06.520Z,102296.63
2024-05-09T04:11:36.275Z,102295.75
2024-05-09T04:14:03.376Z,102300.34
2024-05-09T04:16:33.141Z,102300.34
2024-05-09T04:19:00.254Z,102303.22
2024-05-09T04:21:32.598Z,102310.47
2024-05-09T04:23:59.718Z,102304.47
2024-05-09T04:26:29.531Z,102310.81
2024-05-09T04:28:56.683Z,102311.84
2024-05-09T04:31:26.518Z,102315.47
2024-05-09T04:33:53.731Z,102308.31
2024-05-09T04:36:23.549Z,102312.94
2024-05-09T04:38:53.197Z,102307.31
2024-05-09T04:41:22.918Z,102310.31
2024-05-09T04:43:50.868Z,102302.94
2024-05-09T04:46:20.577Z,102307.56
2024-05-09T04:48:48.933Z,102308.53
2024-05-09T04:51:18.818Z,102309.41
2024-05-09T04:53:45.948Z,102307.56
2024-05-09T04:56:18.255Z,102307.31
2024-05-09T04:58:45.239Z,102304.91
2024-05-09T05:01:15.065Z,102306.66
2024-05-09T05:03:42.687Z,102314.03
2024-05-09T05:06:12.563Z,102307.56
2024-05-09T05:08:39.584Z,102316.69
2024-05-09T05:11:09.394Z,102314.81
2024-05-09T05:13:41.539Z,102324.56
2024-05-09T05:16:11.739Z,102330.22
2024-05-09T05:18:39.034Z,102332.59
2024-05-09T05:21:09.023Z,102325.88
2024-05-09T05:23:36.340Z,102328.25
2024-05-09T05:26:06.292Z,102331.34
2024-05-09T05:28:33.466Z,102331.00
2024-05-09T05:31:05.681Z,102332.88
2024-05-09T05:33:32.871Z,102332.66
2024-05-09T05:36:02.684Z,102323.69
2024-05-09T05:38:29.960Z,102328.47
2024-05-09T05:40:59.615Z,102320.34
2024-05-09T05:43:27.744Z,102328.75
2024-05-09T05:45:57.704Z,102326.16
2024-05-09T05:48:30.015Z,102320.66
2024-05-09T05:50:57.140Z,102331.19
2024-05-09T05:53:29.309Z,102330.09
2024-05-09T05:55:56.465Z,102339.38
2024-05-09T05:58:26.123Z,102340.50
2024-05-09T06:00:53.891Z,102344.13
2024-05-09T06:03:23.694Z,102333.22
2024-05-09T06:05:53.451Z,102342.34
2024-05-09T06:08:24.195Z,102342.72
2024-05-09T06:10:52.235Z,102340.19
2024-05-09T06:13:22.120Z,102346.69
2024-05-09T06:15:49.578Z,102343.31
2024-05-09T06:18:19.667Z,102346.41
2024-05-09T06:20:47.030Z,102344.16
2024-05-09T06:23:22.481Z,102345.25
2024-05-09T06:25:49.820Z,102339.63
2024-05-09T06:28:19.476Z,102331.94
2024-05-09T06:30:46.549Z,102335.16
2024-05-09T06:33:16.884Z,102334.66
2024-05-09T06:35:46.761Z,102339.38
2024-05-09T06:38:19.395Z,102337.56
2024-05-09T06:40:46.564Z,102333.53
2024-05-09T06:43:18.956Z,102339.88
2024-05-09T06:45:48.240Z,102333.56
2024-05-09T06:48:21.856Z,102339.00
2024-05-09T06:50:50.667Z,102337.44
2024-05-09T06:53:24.234Z,102340.00
2024-05-09T06:55:51.606Z,102342.09
2024-05-09T06:58:24.014Z,102338.50
2024-05-09T07:00:51.135Z,102342.91
2024-05-09T07:03:20.912Z,102344.69
2024-05-09T07:05:49.335Z,102345.47
2024-05-09T07:08:19.907Z,102349.03
2024-05-09T07:10:50.217Z,102347.59
2024-05-09T07:13:20.309Z,102342.38
2024-05-09T07:15:47.478Z,102345.03
2024-05-09T07:18:20.148Z,102345.78
2024-05-09T07:20:49.400Z,102354.94
2024-05-09T07:23:20.259Z,102343.03
2024-05-09T07:25:50.082Z,102351.06
2024-05-09T07:28:21.277Z,102342.91
2024-05-09T07:30:51.271Z,102343.03
2024-05-09T07:33:20.060Z,102338.19
2024-05-09T07:35:51.484Z,102340.94
2024-05-09T07:38:18.799Z,102338.16
2024-05-09T07:40:49.098Z,102340.91
2024-05-09T07:43:21.966Z,102345.25
2024-05-09T07:45:54.493Z,102341.91
2024-05-09T07:50:00.247Z,102345.50
2024-05-09T07:53:50.606Z,102339.56
2024-05-09T07:56:24.239Z,102348.94
2024-05-09T07:58:55.658Z,102343.16
2024-05-09T08:01:26.563Z,102345.00
2024-05-09T08:03:54.677Z,102339.59
2024-05-09T08:06:27.788Z,102338.81
2024-05-09T08:08:55.347Z,102338.22
2024-05-09T08:11:25.822Z,102341.94
2024-05-09T08:13:55.555Z,102336.28
2024-05-09T08:16:25.427Z,102337.75
2024-05-09T08:18:52.675Z,102343.38
2024-05-09T08:21:22.837Z,102339.81
2024-05-09T08:23:50.236Z,102334.47
2024-05-09T08:26:21.557Z,102339.41
2024-05-09T08:28:49.286Z,102337.78
2024-05-09T08:31:21.659Z,102336.81
2024-05-09T08:33:51.144Z,102333.53
2024-05-09T08:36:21.105Z,102331.84
2024-05-09T08:38:51.973Z,102327.53
2024-05-09T08:41:22.121Z,102320.47
2024-05-09T08:43:50.570Z,102322.44
2024-05-09T08:46:23.171Z,102326.16
2024-05-09T08:48:53.124Z,102317.31
2024-05-09T08:51:26.189Z,102319.44
2024-05-09T08:53:55.200Z,102318.38
2024-05-09T08:56:30.801Z,102315.00
2024-05-09T08:59:01.634Z,102316.25
2024-05-09T09:01:35.773Z,102317.81
2024-05-09T09:04:08.298Z,102322.00
2024-05-09T09:06:37.435Z,102320.81
2024-05-09T09:09:07.333Z,102320.28
2024-05-09T09:11:34.351Z,102317.91
2024-05-09T09:14:04.071Z,102318.44
2024-05-09T09:16:37.444Z,102315.69
2024-05-09T09:19:07.561Z,102317.44
2024-05-09T09:21:35.029Z,102315.91
2024-05-09T09:24:10.028Z,102319.91
2024-05-09T09:26:37.905Z,102316.97
2024-05-09T09:29:07.803Z,102320.28
2024-05-09T09:31:42.096Z,102313.19
2024-05-09T09:34:12.363Z,102307.59
2024-05-09T09:36:41.188Z,102303.44
2024-05-09T09:39:12.470Z,102308.34
2024-05-09T09:41:41.663Z,102306.09
2024-05-09T09:44:13.290Z,102311.50
2024-05-09T09:46:45.046Z,102301.91
2024-05-09T09:49:15.574Z,102297.22
2024-05-09T09:51:44.669Z,102300.22
2024-05-09T09:54:17.700Z,102295.16
2024-05-09T09:56:47.690Z,102296.56
2024-05-09T09:59:19.497Z,102287.84
2024-05-09T10:01:49.531Z,102290.31
2024-05-09T10:04:20.566Z,102274.97
2024-05-09T10:06:54.102Z,102277.75
2024-05-09T10:09:24.532Z,102272.72
2024-05-09T10:11:59.970Z,102276.53
2024-05-09T10:14:33.495Z,102278.50
2024-05-09T10:17:06.817Z,102268.03
2024-05-09T10:19:36.581Z,102266.81
2024-05-09T10:22:04.727Z,102264.03
2024-05-09T10:24:50.199Z,102261.38
2024-05-09T10:27:26.040Z,102257.53
2024-05-09T10:29:56.407Z,102260.81
2024-05-09T10:32:28.099Z,102262.72
2024-05-09T10:35:08.077Z,102254.00
2024-05-09T10:37:35.811Z,102254.00
2024-05-09T10:40:11.927Z,102252.78
2024-05-09T10:42:44.765Z,102243.38
2024-05-09T10:45:14.410Z,102252.25
2024-05-09T10:47:44.528Z,102249.63
2024-05-09T10:50:22.287Z,102243.16
2024-05-09T10:52:55.729Z,102247.53
2024-05-09T10:55:32.163Z,102244.00
2024-05-09T10:58:02.581Z,102238.63
2024-05-09T11:00:36.419Z,102239.28
2024-05-09T11:03:10.163Z,102230.91
2024-05-09T11:05:45.032Z,102236.88
2024-05-09T11:08:12.459Z,102229.91
2024-05-09T11:10:42.923Z,102231.16
2024-05-09T11:13:10.425Z,102226.09
2024-05-09T11:15:43.570Z,102223.44
2024-05-09T11:18:27.792Z,102220.16
2024-05-09T11:20:57.271Z,102227.31
2024-05-09T11:23:30.673Z,102218.47
2024-05-09T11:25:59.179Z,102217.75
2024-05-09T11:28:30.805Z,102210.81
2024-05-09T11:31:06.665Z,102214.81
2024-05-09T11:33:44.131Z,102206.97
2024-05-09T11:36:12.224Z,102205.25
2024-05-09T11:38:50.235Z,102208.25
2024-05-09T11:41:20.588Z,102208.28
2024-05-09T11:43:51.893Z,102195.88
2024-05-09T11:46:51.744Z,102190.34
2024-05-09T11:49:27.076Z,102190.34
2024-05-09T11:55:02.844Z,102184.06
2024-05-09T11:57:29.985Z,102181.28
2024-05-09T12:00:00.127Z,102173.75
2024-05-09T12:02:27.907Z,102172.22
2024-05-09T12:05:01.904Z,102173.59
2024-05-09T12:07:29.239Z,102172.22
2024-05-09T12:09:59.152Z,102171.84
2024-05-09T12:12:26.346Z,102165.22
2024-05-09T12:14:56.033Z,102162.44
2024-05-09T12:17:23.146Z,102162.09
2024-05-09T12:19:53.632Z,102164.38
2024-05-09T12:22:25.304Z,102165.59
2024-05-09T12:24:55.608Z,102156.19
2024-05-09T12:27:22.726Z,102160.00
2024-05-09T12:29:53.078Z,102160.16
2024-05-09T12:32:20.368Z,102153.16
2024-05-09T12:34:50.112Z,102143.91
2024-05-09T12:37:18.748Z,102150.69
2024-05-09T12:39:51.134Z,102152.72
2024-05-09T12:42:26.650Z,102144.19
2024-05-09T12:44:57.760Z,102148.72
2024-05-09T12:47:25.243Z,102143.63
2024-05-09T12:49:55.087Z,102136.81
2024-05-09T12:52:22.370Z,102136.47
2024-05-09T12:54:54.928Z,102127.56
2024-05-09T12:57:22.230Z,102120.22
2024-05-09T12:59:51.846Z,102125.47
2024-05-09T13:02:19.101Z,102127.22
2024-05-09T13:04:48.975Z,102127.06
2024-05-09T13:07:16.190Z,102122.34
2024-05-09T13:09:55.450Z,102117.59
2024-05-09T13:12:26.940Z,102117.59
2024-05-09T13:14:56.613Z,102115.53
2024-05-09T13:17:23.863Z,102110.84
2024-05-09T13:19:53.636Z,102113.94
2024-05-09T13:23:00.300Z,102110.84
2024-05-09T13:25:30.490Z,102111.03
2024-05-09T13:28:00.579Z,102112.78
2024-05-09T13:30:38.798Z,102107.94
2024-05-09T13:33:09.128Z,102097.13
2024-05-09T13:35:39.835Z,102101.16
2024-05-09T13:38:07.706Z,102103.09
2024-05-09T13:40:37.436Z,102099.59
2024-05-09T13:43:07.267Z,102102.22
2024-05-09T13:45:37.094Z,102094.38
2024-05-09T13:48:06.720Z,102093.50
2024-05-09T13:50:37.149Z,102088.31
2024-05-09T13:53:05.795Z,102088.50
2024-05-09T13:55:36.440Z,102081.16
2024-05-09T13:58:03.738Z,102082.22
2024-05-09T14:00:44.404Z,102078.38
2024-05-09T14:03:16.642Z,102073.16
2024-05-09T14:05:48.393Z,102070.56
2024-05-09T14:08:17.851Z,102066.91
2024-05-09T14:10:48.934Z,102072.50
2024-05-09T14:13:16.598Z,102062.56
2024-05-09T14:15:49.555Z,102062.38
2024-05-09T14:18:18.433Z,102061.00
2024-05-09T14:20:51.192Z,102059.25
2024-05-09T14:23:18.425Z,102051.94
2024-05-09T14:25:52.156Z,102050.03
2024-05-09T14:28:26.441Z,102053.88
2024-05-09T14:31:01.331Z,102048.97
2024-05-09T14:33:30.700Z,102042.91
2024-05-09T14:36:00.685Z,102033.50
2024-05-09T14:38:27.891Z,102033.50
2024-05-09T14:40:57.574Z,102032.63
2024-05-09T14:43:24.905Z,102030.72
2024-05-09T14:45:55.856Z,102032.63
2024-05-09T14:48:27.239Z,102025.78
2024-05-09T14:50:59.555Z,102027.06
2024-05-09T14:53:28.251Z,102023.41
2024-05-09T14:55:58.350Z,102020.59
2024-05-09T14:58:26.491Z,102019.72
2024-05-09T15:00:56.501Z,102014.16
2024-05-09T15:05:56.815Z,102013.28
2024-05-09T15:08:23.988Z,102015.22
2024-05-09T15:10:53.652Z,102012.41
2024-05-09T15:13:21.153Z,102007.88
2024-05-09T15:15:51.050Z,102003.19
2024-05-09T15:18:18.534Z,101998.66
2024-05-09T15:20:51.325Z,102009.63
2024-05-09T15:23:18.628Z,102003.53
2024-05-09T15:25:48.191Z,101999.88
2024-05-09T15:28:15.678Z,101992.59
2024-05-09T15:30:46.861Z,101989.81
2024-05-09T15:33:14.693Z,101996.59
2024-05-09T15:35:46.253Z,101986.50
2024-05-09T15:38:16.322Z,101984.94
2024-05-09T15:40:46.111Z,101988.28
2024-05-09T15:43:13.414Z,101979.38
2024-05-09T15:45:43.344Z,101975.06
2024-05-09T15:48:11.458Z,101978.00
2024-05-09T15:50:42.654Z,101977.31
2024-05-09T15:53:12.045Z,101979.59
2024-05-09T15:55:45.480Z,101977.66
2024-05-09T15:58:13.271Z,101978.06
2024-05-09T16:00:46.307Z,101978.06
2024-05-09T16:03:15.575Z,101970.91
2024-05-09T16:05:48.929Z,101969.88
2024-05-09T16:08:16.608Z,101977.53
2024-05-09T16:10:49.448Z,101979.28
2024-05-09T16:13:17.446Z,101972.34
2024-05-09T16:15:48.017Z,101972.34
2024-05-09T16:18:15.686Z,101970.78
2024-05-09T16:20:48.275Z,101973.75
2024-05-09T16:23:19.671Z,101977.75
2024-05-09T16:25:51.388Z,101973.75
2024-05-09T16:28:22.908Z,101968.91
2024-05-09T16:30:50.954Z,101965.25
2024-05-09T16:33:23.719Z,101971.84
2024-05-09T16:35:51.524Z,101969.41
2024-05-09T16:38:22.818Z,101963.19
2024-05-09T16:40:55.234Z,101966.63
2024-05-09T16:43:22.518Z,101961.31
2024-05-09T16:45:53.413Z,101954.00
2024-05-09T16:48:20.622Z,101953.78
2024-05-09T16:50:51.774Z,101952.91
2024-05-09T16:53:19.164Z,101950.34
2024-05-09T16:55:49.052Z,101949.63
2024-05-09T16:58:19.406Z,101948.59
2024-05-09T17:00:49.386Z,101951.03
2024-05-09T17:03:17.038Z,101954.00
2024-05-09T17:05:47.992Z,101955.94
2024-05-09T17:08:16.302Z,101946.88
2024-05-09T17:10:46.248Z,101954.53
2024-05-09T17:13:16.189Z,101951.91
2024-05-09T17:15:52.510Z,101950.72
2024-05-09T17:18:20.467Z,101954.19
2024-05-09T17:20:50.427Z,101954.19
2024-05-09T17:23:17.517Z,101947.03
2024-05-09T17:25:47.250Z,101948.09
2024-05-09T17:28:14.529Z,101947.38
2024-05-09T17:30:44.453Z,101947.38
2024-05-09T17:33:14.639Z,101950.00
2024-05-09T17:35:46.128Z,101946.91
2024-05-09T17:38:13.359Z,101950.88
2024-05-09T17:40:43.170Z,101941.50
2024-05-09T17:43:10.998Z,101937.84
2024-05-09T17:45:41.874Z,101936.09
2024-05-09T17:48:11.023Z,101937.13
2024-05-09T17:50:44.074Z,101937.13
2024-05-09T17:53:11.515Z,101934.03
2024-05-09T17:55:41.741Z,101934.91
2024-05-09T17:58:09.804Z,101934.91
2024-05-09T18:00:42.028Z,101934.22
2024-05-09T18:03:12.217Z,101941.00
2024-05-09T18:05:46.073Z,101939.06
2024-05-09T18:08:13.843Z,101937.88
2024-05-09T18:10:50.664Z,101944.50
2024-05-09T18:13:19.216Z,101945.72
2024-05-09T18:15:49.098Z,101945.03
2024-05-09T18:18:16.463Z,101952.50
2024-05-09T18:20:53.756Z,101936.69
2024-05-09T18:23:20.932Z,101946.41
2024-05-09T18:25:54.917Z,101944.66
2024-05-09T18:28:22.857Z,101944.00
2024-05-09T18:30:52.785Z,101940.53
2024-05-09T18:33:20.761Z,101944.50
2024-05-09T18:35:53.232Z,101947.13
2024-05-09T18:38:25.352Z,101940.84
2024-05-09T18:40:55.473Z,101946.81
2024-05-09T18:43:28.741Z,101953.03
2024-05-09T18:46:06.383Z,101950.44
2024-05-09T18:48:33.954Z,101949.03
2024-05-09T18:51:06.871Z,101952.53
2024-05-09T18:53:33.910Z,101952.16
2024-05-09T18:56:03.739Z,101959.84
2024-05-09T18:58:33.362Z,101966.56
2024-05-09T19:01:02.058Z,101956.50
2024-05-09T19:03:32.085Z,101956.16
2024-05-09T19:05:59.433Z,101965.53
2024-05-09T19:08:32.147Z,101970.22
2024-05-09T19:10:59.312Z,101971.78
2024-05-09T19:13:28.980Z,101973.00
2024-05-09T19:15:56.965Z,101972.28
2024-05-09T19:18:26.828Z,101971.78
2024-05-09T19:20:53.953Z,101968.47
2024-05-09T19:23:23.930Z,101973.47
2024-05-09T19:25:53.727Z,101969.84
2024-05-09T19:28:23.661Z,101973.31
2024-05-09T19:30:51.504Z,101980.06
2024-05-09T19:33:22.338Z,101980.59
2024-05-09T19:35:49.680Z,101978.34
2024-05-09T19:38:19.673Z,101973.97
2024-05-09T19:40:46.809Z,101988.38
2024-05-09T19:43:19.815Z,101981.09
2024-05-09T19:45:47.256Z,101981.91
2024-05-09T19:48:17.347Z,101993.22
2024-05-09T19:50:45.477Z,101991.78
2024-05-09T19:53:15.818Z,101990.38
2024-05-09T19:55:43.651Z,101993.50
2024-05-09T19:58:13.544Z,101992.94
2024-05-09T20:00:44.792Z,101991.22
2024-05-09T20:03:16.194Z,101998.31
2024-05-09T20:05:45.360Z,102003.19
2024-05-09T20:08:19.181Z,102005.56
2024-05-09T20:10:46.241Z,101993.94
2024-05-09T20:13:16.525Z,102000.69
2024-05-09T20:15:46.766Z,101998.06
2024-05-09T20:18:20.235Z,101998.75
2024-05-09T20:20:50.667Z,101996.28
2024-05-09T20:23:22.530Z,102006.16
2024-05-09T20:25:52.271Z,101999.88
2024-05-09T20:28:22.079Z,102002.97
2024-05-09T20:30:51.854Z,102000.19
2024-05-09T20:33:21.697Z,102005.53
2024-05-09T20:35:48.770Z,101998.44
2024-05-09T20:38:18.395Z,101998.75
2024-05-09T20:40:46.149Z,102007.41
2024-05-09T20:43:16.389Z,101998.50
2024-05-09T20:45:43.680Z,102003.50
2024-05-09T20:48:16.238Z,101997.97
2024-05-09T20:50:43.520Z,102004.16
2024-05-09T20:53:15.120Z,101996.16
2024-05-09T20:55:43.088Z,102005.13
2024-05-09T20:58:13.775Z,102002.53
2024-05-09T21:00:44.790Z,102007.53
2024-05-09T21:03:18.836Z,102000.41
2024-05-09T21:05:46.797Z,102001.75
2024-05-09T21:08:16.886Z,102002.09
2024-05-09T21:10:49.348Z,102001.94
2024-05-09T21:13:18.976Z,102001.09
2024-05-09T21:15:46.242Z,101997.81
2024-05-09T21:18:18.827Z,102003.03
2024-05-09T21:20:45.767Z,102002.72
2024-05-09T21:23:15.424Z,101996.00
2024-05-09T21:25:42.465Z,101996.88
2024-05-09T21:28:12.250Z,101994.25
2024-05-09T21:30:42.446Z,101992.84
2024-05-09T21:33:14.804Z,102001.31
2024-05-09T21:35:45.322Z,102005.25
2024-05-09T21:38:16.132Z,101995.38
2024-05-09T21:40:43.729Z,101995.69
2024-05-09T21:43:14.293Z,101996.16
2024-05-09T21:45:41.936Z,101994.56
2024-05-09T21:48:11.870Z,101995.03
2024-05-09T21:50:41.522Z,101988.06
2024-05-09T21:53:14.972Z,101987.34
2024-05-09T21:55:42.528Z,101992.66
2024-05-09T21:58:12.355Z,101994.69
2024-05-09T22:00:40.738Z,101989.50
2024-05-09T22:03:12.093Z,101987.03
2024-05-09T22:05:43.888Z,101986.28
2024-05-09T22:08:16.289Z,101986.63
2024-05-09T22:10:43.990Z,101983.44
2024-05-09T22:13:15.812Z,101986.22
2024-05-09T22:16:00.325Z,102000.06
2024-05-09T22:18:33.412Z,101991.34
2024-05-09T22:21:00.473Z,101999.66
2024-05-09T22:23:32.882Z,101997.78
2024-05-09T22:25:59.847Z,101990.97
2024-05-09T22:28:29.466Z,102001.88
2024-05-09T22:30:56.539Z,102001.19
2024-05-09T22:33:26.167Z,102007.75
2024-05-09T22:35:53.239Z,102007.88
2024-05-09T22:38:23.247Z,102001.63
2024-05-09T22:40:53.201Z,102009.78
2024-05-09T22:43:24.885Z,102007.50
2024-05-09T22:45:52.894Z,102005.88
2024-05-09T22:48:23.674Z,102000.50
2024-05-09T22:50:51.487Z,101998.75
2024-05-09T22:53:21.492Z,102000.81
2024-05-09T22:55:48.468Z,102004.78
2024-05-09T22:58:21.470Z,102000.25
2024-05-09T23:00:48.813Z,102003.63
2024-05-09T23:03:21.492Z,102000.25
2024-05-09T23:05:49.053Z,101997.97
2024-05-09T23:08:18.788Z,102001.03
2024-05-09T23:10:46.067Z,101997.69
2024-05-09T23:13:16.048Z,101989.72
2024-05-09T23:15:45.856Z,101991.75
2024-05-09T23:18:15.666Z,101989.59
2024-05-09T23:20:42.900Z,101992.50
2024-05-09T23:23:12.787Z,101993.69
2024-05-09T23:25:41.447Z,101997.47
2024-05-09T23:28:11.632Z,101994.16
2024-05-09T23:30:40.838Z,101986.88
2024-05-09T23:33:15.160Z,101982.94
2024-05-09T23:35:44.005Z,101983.38
2024-05-09T23:38:14.046Z,101983.38
2024-05-09T23:40:42.343Z,101987.16
2024-05-09T23:43:13.513Z,101981.63
2024-05-09T23:45:41.185Z,101984.53
2024-05-09T23:48:14.422Z,101975.34
2024-05-09T23:50:41.979Z,101969.13
2024-05-09T23:53:11.993Z,101977.44
2024-05-09T23:55:39.430Z,101970.16
2024-05-09T23:58:11.333Z,101969.28
